Time;durP1;ratioP1;P1;durP2;ratioP2;P2;SDS_P1;SDS_P2;PMS_P1;PMS_P2;Temp;Humidity;BMP_temperature;BMP_pressure;BME280_temperature;BME280_humidity;BME280_pressure;Samples;Min_cycle;Max_cycle;Signal;HPM_P1;HPM_P2
2022/08/08 00:00:05;;;;;;;2.33;1.10;;;;;;;;;;5034746;28;20501;-74
2022/08/08 00:02:56;;;;;;;1.47;1.37;;;;;;;;;;5034634;28;20869;-74
2022/08/08 00:05:40;;;;;;;2.10;1.20;;;;;;;;;;5034413;28;20441;-73
2022/08/08 00:08:22;;;;;;;0.93;0.93;;;;;;;;;;5034381;28;20423;-74
2022/08/08 00:11:07;;;;;;;1.40;1.10;;;;;;;;;;5034187;28;20481;-74
2022/08/08 00:13:55;;;;;;;2.53;1.20;;;;;;;;;;5034217;28;20945;-73
2022/08/08 00:16:42;;;;;;;1.30;1.30;;;;;;;;;;5034116;28;20420;-73
2022/08/08 00:19:11;;;;;;;1.20;1.10;;;;;;;;;;5033931;28;20480;-73
2022/08/08 00:21:40;;;;;;;0.97;0.97;;;;;;;;;;5034118;28;20769;-72
2022/08/08 00:24:11;;;;;;;1.43;1.40;;;;;;;;;;5033575;28;20923;-75
2022/08/08 00:26:45;;;;;;;1.30;1.20;;;;;;;;;;5033999;28;20897;-74
2022/08/08 00:29:15;;;;;;;2.20;1.10;;;;;;;;;;5033927;28;20405;-74
2022/08/08 00:31:43;;;;;;;1.77;1.10;;;;;;;;;;5033781;28;20523;-74
2022/08/08 00:37:00;;;;;;;3.10;1.20;;;;;;;;;;5033945;28;20412;-73
2022/08/08 00:39:44;;;;;;;1.30;1.20;;;;;;;;;;5033801;28;20417;-74
2022/08/08 00:42:19;;;;;;;3.50;1.40;;;;;;;;;;5033667;28;20479;-73
2022/08/08 00:44:48;;;;;;;2.80;1.30;;;;;;;;;;5033754;28;20409;-73
2022/08/08 00:47:32;;;;;;;1.40;1.30;;;;;;;;;;5033714;28;20409;-72
2022/08/08 00:50:07;;;;;;;2.80;1.40;;;;;;;;;;5033491;28;20525;-73
2022/08/08 00:52:36;;;;;;;1.30;1.20;;;;;;;;;;5033671;28;20417;-73
2022/08/08 00:55:14;;;;;;;2.17;1.10;;;;;;;;;;5033520;28;20488;-73
2022/08/08 00:57:55;;;;;;;1.03;1.03;;;;;;;;;;5033778;28;20463;-72
2022/08/08 01:00:26;;;;;;;4.53;0.93;;;;;;;;;;5033722;28;20406;-73
2022/08/08 01:03:04;;;;;;;1.00;1.00;;;;;;;;;;5033438;28;20881;-73
2022/08/08 01:05:36;;;;;;;1.47;1.37;;;;;;;;;;5033446;28;20437;-74
2022/08/08 01:08:21;;;;;;;2.10;1.07;;;;;;;;;;5033483;28;20413;-73
2022/08/08 01:11:01;;;;;;;1.47;1.37;;;;;;;;;;5033327;28;20455;-72
2022/08/08 01:13:28;;;;;;;1.00;1.00;;;;;;;;;;5033336;28;20934;-73
2022/08/08 01:16:12;;;;;;;0.90;0.90;;;;;;;;;;5033319;28;20394;-72
2022/08/08 01:18:57;;;;;;;1.17;1.17;;;;;;;;;;5033391;28;20487;-74
2022/08/08 01:21:29;;;;;;;1.30;1.30;;;;;;;;;;5015581;28;20424;-75
2022/08/08 01:23:55;;;;;;;2.10;1.10;;;;;;;;;;5033252;28;20875;-74
2022/08/08 01:26:21;;;;;;;1.63;1.13;;;;;;;;;;5033281;28;20446;-73
2022/08/08 01:28:53;;;;;;;1.00;1.00;;;;;;;;;;5033447;28;20408;-74
2022/08/08 01:31:32;;;;;;;1.43;1.13;;;;;;;;;;5015553;28;20472;-75
2022/08/08 01:34:03;;;;;;;2.57;1.00;;;;;;;;;;5033208;28;20433;-73
2022/08/08 01:36:48;;;;;;;4.67;1.63;;;;;;;;;;5036701;28;20396;-73
2022/08/08 01:39:32;;;;;;;1.37;1.27;;;;;;;;;;5037165;28;20400;-73
2022/08/08 01:42:17;;;;;;;4.77;1.97;;;;;;;;;;5036830;28;20451;-73
2022/08/08 01:44:52;;;;;;;1.43;1.43;;;;;;;;;;5037057;28;20450;-76
2022/08/08 01:47:37;;;;;;;1.30;1.20;;;;;;;;;;5036928;28;20490;-75
2022/08/08 01:50:12;;;;;;;1.07;1.07;;;;;;;;;;5036857;28;20458;-75
2022/08/08 01:52:49;;;;;;;1.30;1.20;;;;;;;;;;5036844;28;20424;-75
2022/08/08 01:55:15;;;;;;;1.30;1.20;;;;;;;;;;5036790;28;20405;-75
2022/08/08 01:57:53;;;;;;;1.30;1.20;;;;;;;;;;5036753;28;20530;-75
2022/08/08 02:00:21;;;;;;;1.47;1.37;;;;;;;;;;5036689;28;20415;-75
2022/08/08 02:03:12;;;;;;;1.30;1.30;;;;;;;;;;5036723;28;20443;-72
2022/08/08 02:05:50;;;;;;;1.73;1.20;;;;;;;;;;5036652;28;20404;-75
2022/08/08 02:08:25;;;;;;;1.10;1.10;;;;;;;;;;5018897;28;20436;-73
2022/08/08 02:10:54;;;;;;;1.17;1.17;;;;;;;;;;5036481;28;20478;-72
2022/08/08 02:13:23;;;;;;;1.10;1.03;;;;;;;;;;5018732;28;20433;-73
2022/08/08 02:16:13;;;;;;;1.47;1.23;;;;;;;;;;5036356;28;20478;-72
2022/08/08 02:18:39;;;;;;;1.43;1.27;;;;;;;;;;5036322;28;20764;-75
2022/08/08 02:24:06;;;;;;;1.63;1.30;;;;;;;;;;5036310;28;20400;-74
2022/08/08 02:26:36;;;;;;;1.90;1.40;;;;;;;;;;5036464;28;20428;-74
2022/08/08 02:29:11;;;;;;;1.37;1.27;;;;;;;;;;5018452;28;20523;-75
2022/08/08 02:31:40;;;;;;;14.20;1.40;;;;;;;;;;5036009;28;20502;-74
2022/08/08 02:34:06;;;;;;;2.20;1.00;;;;;;;;;;5036140;28;20447;-75
2022/08/08 02:36:38;;;;;;;1.07;1.07;;;;;;;;;;5036057;28;20910;-73
2022/08/08 02:39:04;;;;;;;3.17;1.43;;;;;;;;;;5035971;28;20406;-74
2022/08/08 02:41:40;;;;;;;1.13;1.10;;;;;;;;;;5035992;28;20894;-75
2022/08/08 02:44:09;;;;;;;1.13;1.13;;;;;;;;;;5036126;28;20415;-75
2022/08/08 02:46:41;;;;;;;2.67;1.20;;;;;;;;;;5035554;28;20436;-73
2022/08/08 02:49:22;;;;;;;1.63;1.50;;;;;;;;;;5035816;28;20409;-73
2022/08/08 02:51:52;;;;;;;1.30;1.30;;;;;;;;;;5035709;28;20479;-75
2022/08/08 02:54:37;;;;;;;3.07;1.60;;;;;;;;;;5035780;28;20396;-74
2022/08/08 02:57:16;;;;;;;1.93;1.40;;;;;;;;;;5035680;28;20921;-75
2022/08/08 02:59:51;;;;;;;1.30;1.20;;;;;;;;;;5035655;28;20407;-75
2022/08/08 03:02:17;;;;;;;1.27;1.27;;;;;;;;;;5035605;28;20415;-73
2022/08/08 03:04:52;;;;;;;1.40;1.30;;;;;;;;;;5035760;28;20405;-75
2022/08/08 03:07:24;;;;;;;1.20;1.20;;;;;;;;;;5035463;28;20533;-74
2022/08/08 03:10:08;;;;;;;2.37;1.43;;;;;;;;;;5035401;28;20406;-75
2022/08/08 03:12:41;;;;;;;1.50;1.40;;;;;;;;;;5035439;28;20427;-76
2022/08/08 03:15:10;;;;;;;1.37;1.37;;;;;;;;;;5035306;28;20531;-73
2022/08/08 03:17:40;;;;;;;3.60;1.40;;;;;;;;;;5035317;28;20412;-74
2022/08/08 03:20:06;;;;;;;2.10;1.50;;;;;;;;;;5017524;28;20424;-73
2022/08/08 03:22:32;;;;;;;1.40;1.40;;;;;;;;;;5035234;28;20411;-73
2022/08/08 03:25:00;;;;;;;2.50;1.20;;;;;;;;;;5035143;28;20415;-73
2022/08/08 03:27:29;;;;;;;1.47;1.37;;;;;;;;;;5035197;28;20408;-72
2022/08/08 03:29:58;;;;;;;2.10;1.33;;;;;;;;;;5035015;28;20759;-72
2022/08/08 03:35:09;;;;;;;4.90;1.40;;;;;;;;;;5034968;28;20486;-73
2022/08/08 03:37:35;;;;;;;1.23;1.23;;;;;;;;;;5017190;28;20801;-72
2022/08/08 03:40:02;;;;;;;1.20;1.20;;;;;;;;;;5034872;28;20989;-73
2022/08/08 03:42:28;;;;;;;3.47;1.50;;;;;;;;;;5034590;28;20528;-75
2022/08/08 03:44:54;;;;;;;1.93;1.10;;;;;;;;;;5034847;28;20423;-73
2022/08/08 03:47:21;;;;;;;4.30;1.70;;;;;;;;;;5034756;28;20417;-72
2022/08/08 03:49:47;;;;;;;2.50;1.57;;;;;;;;;;5034835;28;20774;-73
2022/08/08 03:52:14;;;;;;;4.00;1.70;;;;;;;;;;5034869;28;20424;-73
2022/08/08 03:54:42;;;;;;;1.70;1.60;;;;;;;;;;5016932;28;20407;-72
2022/08/08 03:57:12;;;;;;;1.40;1.30;;;;;;;;;;5034157;28;20931;-73
2022/08/08 03:59:38;;;;;;;3.00;1.40;;;;;;;;;;5034293;28;20743;-72
2022/08/08 04:02:14;;;;;;;1.57;1.47;;;;;;;;;;5034560;28;20418;-72
2022/08/08 04:04:40;;;;;;;1.57;1.47;;;;;;;;;;5034605;28;20850;-72
2022/08/08 04:07:06;;;;;;;2.83;1.80;;;;;;;;;;5016664;28;20457;-75
2022/08/08 04:09:32;;;;;;;2.13;2.03;;;;;;;;;;5034197;28;20777;-72
2022/08/08 04:11:59;;;;;;;2.90;1.70;;;;;;;;;;5034119;28;20461;-73
2022/08/08 04:14:25;;;;;;;5.23;1.30;;;;;;;;;;5034399;28;20402;-73
2022/08/08 04:16:51;;;;;;;1.30;1.30;;;;;;;;;;5034228;28;20494;-73
2022/08/08 04:19:17;;;;;;;1.80;1.10;;;;;;;;;;5034131;28;20504;-73
2022/08/08 04:21:43;;;;;;;4.23;1.77;;;;;;;;;;5033982;28;20415;-73
2022/08/08 04:24:09;;;;;;;1.70;1.60;;;;;;;;;;5034008;28;20447;-74
2022/08/08 04:26:35;;;;;;;1.50;1.40;;;;;;;;;;5033985;28;20560;-73
2022/08/08 04:29:02;;;;;;;2.77;1.40;;;;;;;;;;5033986;28;20901;-72
2022/08/08 04:31:28;;;;;;;1.40;1.30;;;;;;;;;;5033747;28;20501;-72
2022/08/08 04:33:54;;;;;;;1.60;1.50;;;;;;;;;;5033810;28;20415;-72
2022/08/08 04:36:20;;;;;;;1.60;1.50;;;;;;;;;;5033885;28;20419;-72
2022/08/08 04:38:45;;;;;;;2.73;1.53;;;;;;;;;;5033743;28;20489;-73
2022/08/08 04:41:11;;;;;;;1.50;1.50;;;;;;;;;;5033705;28;20414;-72
2022/08/08 04:43:37;;;;;;;1.50;1.47;;;;;;;;;;5033531;28;20470;-73
2022/08/08 04:46:04;;;;;;;1.50;1.50;;;;;;;;;;5033803;28;20415;-70
2022/08/08 04:48:30;;;;;;;1.93;1.83;;;;;;;;;;5033591;28;20400;-71
2022/08/08 04:50:56;;;;;;;4.03;2.67;;;;;;;;;;5033520;28;20470;-70
2022/08/08 04:53:22;;;;;;;4.40;1.90;;;;;;;;;;5033571;28;20400;-73
2022/08/08 04:55:48;;;;;;;2.83;1.80;;;;;;;;;;5033547;28;20468;-73
2022/08/08 04:58:16;;;;;;;2.07;2.00;;;;;;;;;;5033535;28;20502;-73
2022/08/08 05:00:42;;;;;;;2.27;2.10;;;;;;;;;;5033378;28;20997;-74
2022/08/08 05:03:08;;;;;;;5.73;2.03;;;;;;;;;;5033463;28;20545;-70
2022/08/08 05:05:34;;;;;;;1.43;1.43;;;;;;;;;;5033745;28;20415;-72
2022/08/08 05:08:00;;;;;;;1.17;1.17;;;;;;;;;;5015801;28;20426;-74
2022/08/08 05:10:28;;;;;;;4.40;4.03;;;;;;;;;;5033201;28;20469;-73
2022/08/08 05:12:55;;;;;;;44.50;32.67;;;;;;;;;;5033601;28;20411;-73
2022/08/08 05:15:21;;;;;;;2.00;1.77;;;;;;;;;;5033355;28;20432;-72
2022/08/08 05:17:46;;;;;;;4.13;3.93;;;;;;;;;;5033273;28;20497;-72
2022/08/08 05:20:12;;;;;;;3.80;3.60;;;;;;;;;;5033352;28;20422;-72
2022/08/08 05:22:39;;;;;;;12.97;4.90;;;;;;;;;;5033274;28;20414;-71
2022/08/08 05:25:05;;;;;;;5.13;2.80;;;;;;;;;;5033166;28;20502;-72
2022/08/08 05:27:31;;;;;;;2.00;2.00;;;;;;;;;;5033171;28;20867;-71
2022/08/08 05:29:57;;;;;;;13.67;12.37;;;;;;;;;;5033324;28;20755;-70
2022/08/08 05:32:23;;;;;;;14.53;12.37;;;;;;;;;;5033261;28;20407;-72
2022/08/08 05:34:50;;;;;;;2.80;2.53;;;;;;;;;;5033151;28;20746;-72
2022/08/08 05:37:18;;;;;;;4.67;4.13;;;;;;;;;;5033070;28;20890;-72
2022/08/08 05:39:50;;;;;;;2.10;1.77;;;;;;;;;;5033023;28;20410;-72
2022/08/08 05:42:16;;;;;;;6.03;2.23;;;;;;;;;;5032871;28;20482;-72
2022/08/08 05:44:46;;;;;;;1.83;1.73;;;;;;;;;;5032925;28;20941;-72
2022/08/08 05:47:12;;;;;;;5.80;3.13;;;;;;;;;;5032771;28;20405;-72
2022/08/08 05:49:41;;;;;;;2.90;2.20;;;;;;;;;;5032870;28;20403;-69
2022/08/08 05:52:08;;;;;;;12.83;5.07;;;;;;;;;;5033144;28;20574;-68
2022/08/08 05:54:34;;;;;;;2.33;2.10;;;;;;;;;;5032791;28;20913;-68
2022/08/08 05:57:01;;;;;;;2.03;1.93;;;;;;;;;;5032936;28;20419;-68
2022/08/08 05:59:29;;;;;;;4.73;2.00;;;;;;;;;;5032884;28;20462;-69
2022/08/08 06:01:55;;;;;;;1.60;1.50;;;;;;;;;;5032909;28;20847;-68
2022/08/08 06:04:25;;;;;;;1.77;1.67;;;;;;;;;;5033138;28;20410;-69
2022/08/08 06:06:52;;;;;;;2.30;1.30;;;;;;;;;;5032746;28;20883;-68
2022/08/08 06:09:22;;;;;;;1.40;1.30;;;;;;;;;;5032806;28;20490;-68
2022/08/08 06:11:48;;;;;;;2.10;1.93;;;;;;;;;;5032720;28;20497;-69
2022/08/08 06:14:14;;;;;;;6.07;1.93;;;;;;;;;;5032809;28;20763;-69
2022/08/08 06:16:42;;;;;;;1.40;1.30;;;;;;;;;;5032640;28;20887;-69
2022/08/08 06:19:09;;;;;;;1.60;1.60;;;;;;;;;;5032719;28;20450;-69
2022/08/08 06:21:36;;;;;;;4.57;1.80;;;;;;;;;;5034619;28;20412;-69
2022/08/08 06:24:05;;;;;;;2.20;1.60;;;;;;;;;;5036261;28;20435;-69
2022/08/08 06:26:35;;;;;;;20.43;1.87;;;;;;;;;;5036258;28;20405;-69
2022/08/08 06:29:05;;;;;;;4.33;1.63;;;;;;;;;;5036222;28;20392;-69
2022/08/08 06:31:34;;;;;;;1.43;1.30;;;;;;;;;;5036035;28;20456;-69
2022/08/08 06:34:01;;;;;;;2.40;1.40;;;;;;;;;;5036118;28;20459;-69
2022/08/08 06:36:33;;;;;;;1.90;1.60;;;;;;;;;;5018195;28;20428;-70
2022/08/08 06:39:01;;;;;;;2.60;1.63;;;;;;;;;;5035994;28;20417;-69
2022/08/08 06:41:29;;;;;;;1.77;1.70;;;;;;;;;;5035925;28;20492;-70
2022/08/08 06:43:57;;;;;;;2.00;1.90;;;;;;;;;;5035769;28;20472;-69
2022/08/08 06:46:24;;;;;;;2.70;1.73;;;;;;;;;;5035757;28;20848;-70
2022/08/08 06:48:50;;;;;;;4.70;1.97;;;;;;;;;;5035926;28;20884;-69
2022/08/08 06:51:16;;;;;;;2.33;1.97;;;;;;;;;;5035740;28;20471;-69
2022/08/08 06:53:42;;;;;;;1.80;1.70;;;;;;;;;;5035765;28;20401;-69
2022/08/08 06:56:08;;;;;;;2.73;1.53;;;;;;;;;;5035771;28;20477;-69
2022/08/08 06:58:34;;;;;;;1.93;1.83;;;;;;;;;;5035712;28;20448;-69
2022/08/08 07:01:03;;;;;;;2.47;2.20;;;;;;;;;;5035480;28;20789;-69
2022/08/08 07:03:32;;;;;;;1.77;1.67;;;;;;;;;;5035570;28;20412;-71
2022/08/08 07:06:00;;;;;;;3.03;1.87;;;;;;;;;;5035505;28;20404;-70
2022/08/08 07:08:33;;;;;;;1.80;1.77;;;;;;;;;;5035494;28;20397;-70
2022/08/08 07:11:02;;;;;;;5.07;1.80;;;;;;;;;;5035605;28;20599;-72
2022/08/08 07:13:32;;;;;;;9.33;1.97;;;;;;;;;;5035288;28;20409;-71
2022/08/08 07:15:59;;;;;;;1.67;1.57;;;;;;;;;;5035399;28;20393;-72
2022/08/08 07:18:28;;;;;;;1.67;1.57;;;;;;;;;;5035319;28;20885;-70
2022/08/08 07:20:58;;;;;;;7.50;2.00;;;;;;;;;;5035424;28;20409;-71
2022/08/08 07:23:30;;;;;;;1.70;1.60;;;;;;;;;;5035347;28;20878;-71
2022/08/08 07:25:59;;;;;;;1.37;1.27;;;;;;;;;;5035083;28;20919;-73
2022/08/08 07:28:26;;;;;;;1.57;1.57;;;;;;;;;;5035062;28;20803;-71
2022/08/08 07:30:52;;;;;;;5.43;1.57;;;;;;;;;;5035009;28;20923;-72
2022/08/08 07:33:21;;;;;;;3.50;1.50;;;;;;;;;;5033809;28;20408;-71
2022/08/08 07:35:48;;;;;;;1.80;1.50;;;;;;;;;;5034942;28;20412;-70
2022/08/08 07:38:15;;;;;;;1.40;1.40;;;;;;;;;;5035033;28;20509;-70
2022/08/08 07:40:44;;;;;;;3.20;1.67;;;;;;;;;;5034772;28;20469;-71
2022/08/08 07:43:10;;;;;;;2.27;1.67;;;;;;;;;;5034672;28;20478;-71
2022/08/08 07:45:37;;;;;;;2.10;1.90;;;;;;;;;;5034865;28;20412;-77
2022/08/08 07:48:03;;;;;;;2.13;1.70;;;;;;;;;;5034737;28;20492;-79
2022/08/08 07:50:30;;;;;;;2.07;1.40;;;;;;;;;;5034629;28;20465;-77
2022/08/08 07:52:59;;;;;;;2.30;1.60;;;;;;;;;;5034712;28;20404;-75
2022/08/08 07:55:26;;;;;;;2.83;1.77;;;;;;;;;;5034567;28;20409;-74
2022/08/08 07:58:12;;;;;;;8.80;1.57;;;;;;;;;;5034509;28;20406;-74
2022/08/08 08:00:40;;;;;;;1.30;1.30;;;;;;;;;;5034452;28;20401;-74
2022/08/08 08:03:08;;;;;;;1.70;1.20;;;;;;;;;;5034551;28;20401;-71
2022/08/08 08:05:44;;;;;;;3.43;1.47;;;;;;;;;;5034473;28;20485;-74
2022/08/08 08:08:17;;;;;;;1.63;1.63;;;;;;;;;;5034498;28;20406;-75
2022/08/08 08:10:50;;;;;;;1.50;1.40;;;;;;;;;;5033979;28;20458;-76
2022/08/08 08:13:26;;;;;;;4.13;1.60;;;;;;;;;;5034094;28;20899;-71
2022/08/08 08:15:54;;;;;;;1.83;1.77;;;;;;;;;;5034279;28;20433;-73
2022/08/08 08:18:22;;;;;;;3.03;1.80;;;;;;;;;;5034176;28;20513;-76
2022/08/08 08:20:50;;;;;;;3.37;1.67;;;;;;;;;;5034013;28;20420;-76
2022/08/08 08:23:16;;;;;;;2.80;2.13;;;;;;;;;;5034209;28;20897;-74
2022/08/08 08:25:42;;;;;;;1.50;1.50;;;;;;;;;;5016289;28;20421;-72
2022/08/08 08:28:08;;;;;;;3.40;1.50;;;;;;;;;;5033941;28;20766;-76
2022/08/08 08:30:34;;;;;;;1.80;1.70;;;;;;;;;;5034040;28;20450;-80
2022/08/08 08:33:00;;;;;;;1.53;1.43;;;;;;;;;;5016279;28;20844;-79
2022/08/08 08:35:26;;;;;;;1.87;1.77;;;;;;;;;;5034019;28;20415;-80
2022/08/08 08:37:52;;;;;;;5.97;1.77;;;;;;;;;;5033902;28;20423;-79
2022/08/08 08:40:18;;;;;;;5.57;1.80;;;;;;;;;;5034081;28;20420;-79
2022/08/08 08:42:45;;;;;;;1.50;1.40;;;;;;;;;;5033614;28;20482;-71
2022/08/08 08:45:11;;;;;;;1.43;1.33;;;;;;;;;;5033382;28;20419;-72
2022/08/08 08:47:38;;;;;;;1.47;1.37;;;;;;;;;;5033645;28;20419;-72
2022/08/08 08:50:04;;;;;;;2.00;1.40;;;;;;;;;;5033599;28;20465;-71
2022/08/08 08:52:30;;;;;;;1.33;1.23;;;;;;;;;;5033547;28;20520;-71
2022/08/08 08:54:59;;;;;;;1.17;1.17;;;;;;;;;;5033594;28;20418;-72
2022/08/08 08:57:25;;;;;;;1.30;1.20;;;;;;;;;;5033590;28;20421;-72
2022/08/08 08:59:53;;;;;;;5.07;1.63;;;;;;;;;;5033572;28;20426;-76
2022/08/08 09:02:20;;;;;;;2.00;1.90;;;;;;;;;;5033484;28;20407;-71
2022/08/08 09:04:47;;;;;;;1.40;1.30;;;;;;;;;;5033498;28;20491;-74
2022/08/08 09:07:15;;;;;;;2.67;1.30;;;;;;;;;;5033762;28;20468;-74
2022/08/08 09:09:45;;;;;;;2.00;1.30;;;;;;;;;;5033318;28;20412;-79
2022/08/08 09:12:12;;;;;;;2.60;1.50;;;;;;;;;;5033317;28;20620;-74
2022/08/08 09:14:38;;;;;;;5.67;1.90;;;;;;;;;;5033295;28;20435;-77
2022/08/08 09:17:04;;;;;;;1.30;1.23;;;;;;;;;;5033312;28;20822;-73
2022/08/08 09:19:30;;;;;;;2.20;1.27;;;;;;;;;;5033571;28;20419;-74
2022/08/08 09:21:57;;;;;;;1.47;1.37;;;;;;;;;;5033527;28;20604;-77
2022/08/08 09:24:24;;;;;;;2.30;1.37;;;;;;;;;;5033352;28;20883;-76
2022/08/08 09:26:56;;;;;;;7.70;1.90;;;;;;;;;;5033208;28;20404;-78
2022/08/08 09:29:23;;;;;;;2.87;1.50;;;;;;;;;;5033196;28;20838;-78
2022/08/08 09:31:52;;;;;;;6.37;1.90;;;;;;;;;;5033153;28;20476;-79
2022/08/08 09:34:19;;;;;;;1.97;1.30;;;;;;;;;;5033331;28;20409;-78
2022/08/08 09:36:46;;;;;;;3.90;1.60;;;;;;;;;;5033134;28;20401;-79
2022/08/08 09:39:12;;;;;;;3.17;1.30;;;;;;;;;;5033441;28;20799;-78
2022/08/08 09:41:40;;;;;;;1.40;1.30;;;;;;;;;;5033008;28;20888;-76
2022/08/08 09:44:15;;;;;;;2.90;1.30;;;;;;;;;;5033141;28;20408;-79
2022/08/08 09:46:42;;;;;;;2.90;2.60;;;;;;;;;;5033136;28;20411;-78
2022/08/08 09:49:09;;;;;;;1.30;1.20;;;;;;;;;;5033317;28;20739;-76
2022/08/08 09:51:39;;;;;;;8.50;1.30;;;;;;;;;;5032920;28;20933;-78
2022/08/08 09:54:05;;;;;;;7.40;1.30;;;;;;;;;;5033048;28;20405;-76
2022/08/08 09:56:34;;;;;;;3.30;1.30;;;;;;;;;;5034868;28;20442;-79
2022/08/08 09:59:06;;;;;;;1.87;1.77;;;;;;;;;;5036862;28;20441;-79
2022/08/08 10:01:32;;;;;;;1.80;1.70;;;;;;;;;;5037033;28;20775;-80
2022/08/08 10:03:59;;;;;;;7.27;1.73;;;;;;;;;;5018968;28;20915;-76
2022/08/08 10:06:25;;;;;;;2.97;1.40;;;;;;;;;;5036625;28;20956;-78
2022/08/08 10:08:52;;;;;;;1.27;1.27;;;;;;;;;;5036627;28;20406;-75
2022/08/08 10:11:19;;;;;;;1.53;1.47;;;;;;;;;;5036461;28;20972;-78
2022/08/08 10:13:54;;;;;;;1.80;1.70;;;;;;;;;;5036495;28;20481;-74
2022/08/08 10:16:20;;;;;;;1.00;1.00;;;;;;;;;;5036674;28;20420;-76
2022/08/08 10:18:46;;;;;;;1.60;1.50;;;;;;;;;;5036400;28;20762;-76
2022/08/08 10:21:16;;;;;;;6.33;1.43;;;;;;;;;;5036358;28;20498;-77
2022/08/08 10:23:52;;;;;;;1.90;1.30;;;;;;;;;;5036269;28;20402;-71
2022/08/08 10:26:36;;;;;;;1.33;1.30;;;;;;;;;;5036227;28;20468;-72
2022/08/08 10:29:04;;;;;;;5.53;1.40;;;;;;;;;;5036254;28;20752;-75
2022/08/08 10:34:16;;;;;;;1.27;1.27;;;;;;;;;;5036202;28;20387;-77
2022/08/08 10:36:43;;;;;;;1.47;1.30;;;;;;;;;;5036018;28;20460;-79
2022/08/08 10:39:10;;;;;;;1.73;1.53;;;;;;;;;;5036165;28;20493;-76
2022/08/08 10:41:36;;;;;;;1.40;1.30;;;;;;;;;;5035793;28;20443;-74
2022/08/08 10:44:03;;;;;;;5.17;1.40;;;;;;;;;;5018140;28;20426;-73
2022/08/08 10:46:30;;;;;;;1.63;1.53;;;;;;;;;;5036221;28;20770;-76
2022/08/08 10:48:57;;;;;;;3.93;3.60;;;;;;;;;;5035880;28;20439;-77
2022/08/08 10:51:26;;;;;;;1.60;1.50;;;;;;;;;;5035680;28;20470;-76
2022/08/08 10:53:54;;;;;;;1.90;1.40;;;;;;;;;;5035781;28;20409;-77
2022/08/08 10:56:20;;;;;;;1.63;1.47;;;;;;;;;;5034661;28;20412;-75
2022/08/08 10:58:46;;;;;;;2.10;1.73;;;;;;;;;;5034704;28;20407;-74
2022/08/08 11:01:13;;;;;;;4.97;1.60;;;;;;;;;;5017423;28;20428;-69
2022/08/08 11:03:40;;;;;;;1.50;1.40;;;;;;;;;;5035257;28;20486;-72
2022/08/08 11:06:07;;;;;;;1.50;1.50;;;;;;;;;;5035801;28;20408;-70
2022/08/08 11:08:35;;;;;;;3.90;1.40;;;;;;;;;;5034799;28;20780;-73
2022/08/08 11:11:04;;;;;;;1.33;1.23;;;;;;;;;;5034870;28;20566;-77
2022/08/08 11:13:44;;;;;;;2.93;1.73;;;;;;;;;;5035204;28;20902;-72
2022/08/08 11:16:17;;;;;;;3.27;1.43;;;;;;;;;;5034934;28;20412;-69
2022/08/08 11:18:46;;;;;;;1.40;1.30;;;;;;;;;;5034465;28;20887;-75
2022/08/08 11:21:12;;;;;;;4.93;1.30;;;;;;;;;;5034934;28;20408;-71
2022/08/08 11:23:40;;;;;;;5.70;1.63;;;;;;;;;;5035309;28;20454;-78
2022/08/08 11:26:06;;;;;;;2.80;1.70;;;;;;;;;;5035230;28;20476;-75
2022/08/08 11:28:36;;;;;;;3.37;1.40;;;;;;;;;;5035149;28;20487;-78
2022/08/08 11:31:03;;;;;;;3.87;1.60;;;;;;;;;;5035367;28;20877;-77
2022/08/08 11:33:30;;;;;;;2.97;1.70;;;;;;;;;;5035003;28;20462;-74
2022/08/08 11:35:57;;;;;;;4.07;1.30;;;;;;;;;;5034985;28;20459;-74
2022/08/08 11:38:23;;;;;;;1.30;1.30;;;;;;;;;;5034951;28;20487;-73
2022/08/08 11:40:50;;;;;;;1.90;1.70;;;;;;;;;;5034877;28;20493;-73
2022/08/08 11:43:17;;;;;;;2.80;1.40;;;;;;;;;;5034735;28;20558;-76
2022/08/08 11:45:44;;;;;;;1.33;1.20;;;;;;;;;;5034887;28;20400;-76
2022/08/08 11:48:10;;;;;;;2.83;1.20;;;;;;;;;;5034641;28;20469;-72
2022/08/08 11:50:37;;;;;;;1.30;1.30;;;;;;;;;;5034558;28;20471;-74
2022/08/08 11:53:03;;;;;;;2.70;1.30;;;;;;;;;;5034686;28;20732;-74
2022/08/08 11:55:29;;;;;;;1.60;1.60;;;;;;;;;;5034618;28;20457;-75
2022/08/08 11:58:08;;;;;;;3.80;1.37;;;;;;;;;;5034564;28;20499;-75
2022/08/08 12:00:42;;;;;;;1.30;1.30;;;;;;;;;;5034568;28;20466;-77
2022/08/08 12:03:35;;;;;;;1.20;1.20;;;;;;;;;;5034530;28;20764;-76
2022/08/08 12:06:11;;;;;;;1.10;1.10;;;;;;;;;;5031173;28;20423;-74
2022/08/08 12:08:37;;;;;;;1.33;1.33;;;;;;;;;;5034504;28;20407;-73
2022/08/08 12:11:09;;;;;;;2.10;1.10;;;;;;;;;;5034335;28;20985;-74
2022/08/08 12:13:35;;;;;;;2.00;1.20;;;;;;;;;;5034752;28;20400;-75
2022/08/08 12:16:08;;;;;;;1.20;1.10;;;;;;;;;;5034500;28;20773;-75
2022/08/08 12:18:43;;;;;;;1.93;1.20;;;;;;;;;;5033685;28;20408;-75
2022/08/08 12:21:18;;;;;;;6.33;1.07;;;;;;;;;;5034350;28;20486;-76
2022/08/08 12:23:44;;;;;;;2.10;1.40;;;;;;;;;;5034270;28;20412;-77
2022/08/08 12:26:11;;;;;;;2.50;1.30;;;;;;;;;;5034161;28;20408;-78
2022/08/08 12:28:37;;;;;;;4.23;1.33;;;;;;;;;;5034177;28;20522;-81
2022/08/08 12:31:07;;;;;;;4.20;1.40;;;;;;;;;;5034262;28;20492;-72
2022/08/08 12:33:33;;;;;;;3.80;1.47;;;;;;;;;;5034000;28;20455;-75
2022/08/08 12:36:09;;;;;;;3.67;1.00;;;;;;;;;;5033914;28;20415;-77
2022/08/08 12:38:48;;;;;;;1.33;1.07;;;;;;;;;;5034290;28;20435;-77
2022/08/08 12:41:14;;;;;;;2.10;1.23;;;;;;;;;;5034104;28;20766;-75
2022/08/08 12:43:40;;;;;;;2.40;1.33;;;;;;;;;;5033790;28;20472;-74
2022/08/08 12:46:13;;;;;;;3.73;1.30;;;;;;;;;;5033971;28;20419;-79
2022/08/08 12:48:41;;;;;;;3.90;1.00;;;;;;;;;;5034044;28;20170;-78
2022/08/08 12:51:18;;;;;;;1.90;1.20;;;;;;;;;;5033877;28;20554;-76
2022/08/08 12:53:54;;;;;;;1.43;1.10;;;;;;;;;;5033728;28;20412;-77
2022/08/08 12:56:31;;;;;;;2.50;1.30;;;;;;;;;;5033932;28;20438;-77
2022/08/08 12:58:57;;;;;;;1.63;1.20;;;;;;;;;;5033838;28;20434;-77
2022/08/08 13:01:34;;;;;;;1.37;1.27;;;;;;;;;;5034023;28;20423;-75
2022/08/08 13:04:00;;;;;;;0.90;0.90;;;;;;;;;;5033796;28;20412;-78
2022/08/08 13:06:26;;;;;;;1.23;1.23;;;;;;;;;;5033804;28;21006;-72
2022/08/08 13:08:52;;;;;;;3.00;1.37;;;;;;;;;;5033768;28;20891;-73
2022/08/08 13:11:19;;;;;;;1.83;1.37;;;;;;;;;;5033299;28;20471;-74
2022/08/08 13:14:07;;;;;;;1.80;1.37;;;;;;;;;;5033959;28;20432;-70
2022/08/08 13:16:33;;;;;;;1.00;1.00;;;;;;;;;;5033392;28;20407;-74
2022/08/08 13:19:01;;;;;;;1.50;1.40;;;;;;;;;;5015829;28;20416;-75
2022/08/08 13:21:27;;;;;;;1.20;1.17;;;;;;;;;;5033355;28;20489;-74
2022/08/08 13:23:53;;;;;;;5.80;1.13;;;;;;;;;;5033823;28;20392;-75
2022/08/08 13:26:19;;;;;;;4.07;1.40;;;;;;;;;;5038226;28;20407;-73
2022/08/08 13:28:45;;;;;;;1.23;1.17;;;;;;;;;;5048049;28;20396;-74
2022/08/08 13:31:11;;;;;;;1.53;1.43;;;;;;;;;;5045432;28;21016;-74
2022/08/08 13:33:39;;;;;;;2.43;1.13;;;;;;;;;;5048844;28;20883;-75
2022/08/08 13:36:05;;;;;;;2.80;1.63;;;;;;;;;;5051927;28;20424;-75
2022/08/08 13:38:31;;;;;;;1.90;1.80;;;;;;;;;;5050922;28;20460;-73
2022/08/08 13:40:59;;;;;;;9.57;1.50;;;;;;;;;;5041628;28;20404;-73
2022/08/08 13:43:26;;;;;;;3.80;1.20;;;;;;;;;;5040680;28;20459;-73
2022/08/08 13:45:52;;;;;;;1.37;1.37;;;;;;;;;;5048402;28;20466;-73
2022/08/08 13:48:18;;;;;;;1.57;0.83;;;;;;;;;;5027413;28;20424;-71
2022/08/08 13:50:48;;;;;;;2.40;1.10;;;;;;;;;;5047352;28;20485;-75
2022/08/08 13:53:24;;;;;;;1.40;1.33;;;;;;;;;;5044863;28;20477;-76
2022/08/08 13:56:00;;;;;;;1.23;1.23;;;;;;;;;;5037226;28;20395;-76
2022/08/08 13:58:27;;;;;;;1.20;1.20;;;;;;;;;;5037141;28;20412;-74
2022/08/08 14:00:54;;;;;;;1.10;1.10;;;;;;;;;;5035892;28;20806;-76
2022/08/08 14:03:26;;;;;;;3.90;1.37;;;;;;;;;;5017820;28;20771;-76
2022/08/08 14:05:52;;;;;;;2.40;1.13;;;;;;;;;;5035808;28;20497;-76
2022/08/08 14:08:18;;;;;;;2.93;1.60;;;;;;;;;;5035520;28;20459;-77
2022/08/08 14:10:44;;;;;;;5.50;1.40;;;;;;;;;;5035401;28;20467;-77
2022/08/08 14:13:15;;;;;;;1.10;1.00;;;;;;;;;;5035302;28;20576;-77
2022/08/08 14:15:41;;;;;;;2.40;1.10;;;;;;;;;;5035509;28;20426;-75
2022/08/08 14:18:08;;;;;;;1.70;1.40;;;;;;;;;;5035378;28;20942;-76
2022/08/08 14:20:35;;;;;;;2.97;1.20;;;;;;;;;;5035297;28;20465;-74
2022/08/08 14:23:10;;;;;;;1.50;1.40;;;;;;;;;;5035207;28;20939;-76
2022/08/08 14:25:46;;;;;;;3.70;1.17;;;;;;;;;;5035612;28;20449;-75
2022/08/08 14:28:12;;;;;;;4.30;1.43;;;;;;;;;;5035299;28;20411;-75
2022/08/08 14:30:38;;;;;;;1.60;1.00;;;;;;;;;;5034849;28;20607;-76
2022/08/08 14:33:04;;;;;;;2.43;1.50;;;;;;;;;;5034928;28;20576;-75
2022/08/08 14:35:30;;;;;;;5.03;1.30;;;;;;;;;;5017236;28;20919;-76
2022/08/08 14:38:00;;;;;;;1.57;1.33;;;;;;;;;;5034989;28;20424;-76
2022/08/08 14:40:27;;;;;;;1.10;1.10;;;;;;;;;;5034805;28;20479;-76
2022/08/08 14:42:54;;;;;;;2.80;1.30;;;;;;;;;;5034330;28;20489;-74
2022/08/08 14:45:21;;;;;;;1.40;1.40;;;;;;;;;;5035342;28;20397;-76
2022/08/08 14:47:47;;;;;;;1.80;1.27;;;;;;;;;;5016780;28;20935;-75
2022/08/08 14:50:17;;;;;;;2.00;1.90;;;;;;;;;;5034374;28;20469;-76
2022/08/08 14:52:47;;;;;;;3.20;1.57;;;;;;;;;;5034636;28;20470;-77
2022/08/08 14:55:15;;;;;;;1.47;1.40;;;;;;;;;;5034434;28;20883;-77
2022/08/08 14:57:41;;;;;;;4.20;1.20;;;;;;;;;;5034537;28;20413;-77
2022/08/08 15:00:09;;;;;;;2.00;1.23;;;;;;;;;;5034442;28;20411;-74
2022/08/08 15:02:35;;;;;;;2.43;2.23;;;;;;;;;;5034145;28;20445;-74
2022/08/08 15:05:02;;;;;;;7.50;1.50;;;;;;;;;;5034434;28;20432;-76
2022/08/08 15:07:28;;;;;;;1.57;1.37;;;;;;;;;;5034286;28;20412;-78